Time,TemperatureF,DewpointF,PressureIn,WindDirection,WindDirectionDegrees,WindSpeedMPH,WindSpeedGustMPH,Humidity,HourlyPrecipIn,Conditions,Clouds,dailyrainin,SolarRadiationWatts/m^2,SoftwareType,DateUTC
2013-09-19 01:00:00,43.0,30.0,-100.00,ESE,108,2.0,4.0,59,-99.99,,,0.00,-0.200000,,2013-09-19 08:00:00,
2013-09-19 01:52:00,43.0,30.0,-100.00,ESE,108,2.0,4.0,59,-99.99,,,0.00,-0.200000,,2013-09-19 08:52:00,
2013-09-19 02:00:00,43.0,27.0,-100.00,SSE,155,3.0,4.0,52,-99.99,,,0.00,-0.200000,,2013-09-19 09:00:00,
2013-09-19 02:53:00,43.0,27.0,-100.00,SSE,155,3.0,4.0,52,-99.99,,,0.00,-0.200000,,2013-09-19 09:53:00,
2013-09-19 03:00:00,43.0,31.0,-100.00,East,101,2.0,4.0,64,-99.99,,,0.00,-0.200000,,2013-09-19 10:00:00,
2013-09-19 03:52:00,43.0,31.0,-100.00,East,101,2.0,4.0,64,-99.99,,,0.00,-0.200000,,2013-09-19 10:52:00,
2013-09-19 04:00:00,42.0,32.0,-100.00,SE,124,2.0,4.0,67,-99.99,,,0.00,-0.200000,,2013-09-19 11:00:00,
2013-09-19 04:52:00,42.0,32.0,-100.00,SE,124,2.0,4.0,67,-99.99,,,0.00,-0.200000,,2013-09-19 11:52:00,
2013-09-19 06:00:00,40.0,31.0,-100.00,SE,146,2.0,3.0,71,-99.99,,,0.00,-0.200000,,2013-09-19 13:00:00,
2013-09-19 06:52:00,40.0,31.0,-100.00,SE,146,2.0,3.0,71,-99.99,,,0.00,-0.200000,,2013-09-19 13:52:00,
2013-09-19 07:00:00,40.0,33.0,-100.00,ENE,73,2.0,4.0,74,-99.99,,,0.00,2.400000,,2013-09-19 14:00:00,
2013-09-19 07:52:00,40.0,33.0,-100.00,ENE,73,2.0,4.0,74,-99.99,,,0.00,2.400000,,2013-09-19 14:52:00,
2013-09-19 09:00:00,47.0,33.0,-100.00,NE,39,2.0,4.0,59,-99.99,,,0.00,177.800003,,2013-09-19 16:00:00,
2013-09-19 09:52:00,47.0,33.0,-100.00,NE,39,2.0,4.0,59,-99.99,,,0.00,177.800003,,2013-09-19 16:52:00,
2013-09-19 10:00:00,50.0,33.0,-100.00,North,-999,-999.0,-999.0,52,-99.99,,,0.00,,,2013-09-19 17:00:00,
2013-09-19 10:53:00,50.0,33.0,-100.00,North,-999,-999.0,-999.0,52,-99.99,,,0.00,,,2013-09-19 17:53:00,
2013-09-19 11:00:00,52.0,35.0,-100.00,WSW,240,2.0,5.0,52,-99.99,,,0.00,467.899994,,2013-09-19 18:00:00,
2013-09-19 11:52:00,52.0,35.0,-100.00,WSW,240,2.0,5.0,52,-99.99,,,0.00,467.899994,,2013-09-19 18:52:00,
2013-09-19 15:00:00,53.0,34.0,-100.00,West,271,1.0,3.0,49,-99.99,,,-99.99,620.900024,,2013-09-19 22:00:00,
2013-09-19 15:53:00,53.0,34.0,-100.00,West,271,1.0,3.0,49,-99.99,,,-99.99,620.900024,,2013-09-19 22:53:00,
2013-09-19 16:00:00,50.0,33.0,-100.00,North,-999,-999.0,-999.0,51,-99.99,,,-99.99,,,2013-09-19 23:00:00,
2013-09-19 16:53:00,50.0,33.0,-100.00,North,-999,-999.0,-999.0,51,-99.99,,,-99.99,,,2013-09-19 23:53:00,
2013-09-19 17:00:00,53.0,37.0,-100.00,NNW,338,1.0,2.0,56,-99.99,,,-99.99,340.899994,,2013-09-20 00:00:00,
2013-09-19 17:52:00,53.0,37.0,-100.00,NNW,338,1.0,2.0,56,-99.99,,,-99.99,340.899994,,2013-09-20 00:52:00,
2013-09-19 18:00:00,52.0,37.0,-100.00,NNW,347,1.0,2.0,55,-99.99,,,-99.99,280.200012,,2013-09-20 01:00:00,
2013-09-19 18:52:00,52.0,37.0,-100.00,NNW,347,1.0,2.0,55,-99.99,,,-99.99,280.200012,,2013-09-20 01:52:00,
2013-09-19 19:00:00,46.0,32.0,-100.00,ESE,104,0.0,1.0,59,-99.99,,,-99.99,69.699997,,2013-09-20 02:00:00,
2013-09-19 19:52:00,46.0,32.0,-100.00,ESE,104,0.0,1.0,59,-99.99,,,-99.99,69.699997,,2013-09-20 02:52:00,
2013-09-19 20:00:00,45.0,30.0,-100.00,East,95,0.0,1.0,54,-99.99,,,-99.99,0.700000,,2013-09-20 03:00:00,
2013-09-19 20:56:00,45.0,30.0,-100.00,East,95,0.0,1.0,54,-99.99,,,-99.99,0.700000,,2013-09-20 03:56:00,
2013-09-19 21:00:00,45.0,27.0,-100.00,East,93,1.0,1.0,49,-99.99,,,-99.99,-0.200000,,2013-09-20 04:00:00,
2013-09-19 21:54:00,45.0,27.0,-100.00,East,93,1.0,1.0,49,-99.99,,,-99.99,-0.200000,,2013-09-20 04:54:00,
2013-09-19 22:00:00,44.0,28.0,-100.00,ESE,122,1.0,2.0,53,-99.99,,,0.00,-0.200000,,2013-09-20 05:00:00,
2013-09-19 22:53:00,44.0,28.0,-100.00,ESE,122,1.0,2.0,53,-99.99,,,0.00,-0.200000,,2013-09-20 05:53:00,